createdAt,value
2023-01-02T00:01:41.207Z,101293.77
2023-01-02T00:04:09.505Z,101295.06
2023-01-02T00:06:38.940Z,101301.08
2023-01-02T00:09:09.014Z,101298.55
2023-01-02T00:11:37.749Z,101293.33
2023-01-02T00:14:05.915Z,101297.48
2023-01-02T00:16:34.390Z,101297.92
2023-01-02T00:19:02.815Z,101296.75
2023-01-02T00:21:31.144Z,101294.98
2023-01-02T00:23:59.299Z,101296.82
2023-01-02T00:26:27.976Z,101306.48
2023-01-02T00:28:57.269Z,101304.27
2023-01-02T00:31:25.697Z,101303.23
2023-01-02T00:33:54.151Z,101299.39
2023-01-02T00:36:22.640Z,101292.67
2023-01-02T00:38:53.919Z,101292.89
2023-01-02T00:41:22.367Z,101291.92
2023-01-02T00:43:50.652Z,101289.17
2023-01-02T00:46:18.998Z,101289.06
2023-01-02T00:48:47.348Z,101291.65
2023-01-02T00:51:15.441Z,101287.02
2023-01-02T00:53:43.479Z,101286.64
2023-01-02T00:56:12.265Z,101288.45
2023-01-02T00:58:40.899Z,101292.35
2023-01-02T01:01:09.359Z,101288.32
2023-01-02T01:03:37.577Z,101286.52
2023-01-02T01:06:10.209Z,101290.17
2023-01-02T01:08:39.463Z,101289.63
2023-01-02T01:11:09.669Z,101288.36
2023-01-02T01:13:38.353Z,101285.98
2023-01-02T01:16:09.264Z,101288.67
2023-01-02T01:18:38.167Z,101289.70
2023-01-02T01:21:15.534Z,101290.46
2023-01-02T01:23:44.683Z,101294.30
2023-01-02T01:26:13.497Z,101291.54
2023-01-02T01:28:41.748Z,101291.36
2023-01-02T01:31:12.231Z,101292.95
2023-01-02T01:33:41.705Z,101288.16
2023-01-02T01:36:12.592Z,101289.40
2023-01-02T01:38:41.344Z,101278.63
2023-01-02T01:41:12.219Z,101269.90
2023-01-02T01:43:58.505Z,101268.18
2023-01-02T01:46:47.352Z,101266.71
2023-01-02T01:49:21.472Z,101261.17
2023-01-02T01:51:54.856Z,101261.73
2023-01-02T01:54:35.794Z,101257.60
2023-01-02T01:57:15.863Z,101246.53
2023-01-02T01:59:44.769Z,101246.87
2023-01-02T02:02:13.374Z,101245.79
2023-01-02T02:04:44.496Z,101240.97
2023-01-02T02:07:16.204Z,101243.50
2023-01-02T02:09:49.037Z,101249.23
2023-01-02T02:12:25.997Z,101242.98
2023-01-02T02:14:56.343Z,101238.63
2023-01-02T02:18:05.369Z,101230.80
2023-01-02T02:20:46.251Z,101230.70
2023-01-02T02:23:36.198Z,101220.44
2023-01-02T02:26:30.874Z,101204.31
2023-01-02T02:29:19.060Z,101197.14
2023-01-02T02:32:06.030Z,101208.45
2023-01-02T02:34:52.629Z,101202.02
2023-01-02T02:37:26.866Z,101194.02
2023-01-02T02:40:12.472Z,101181.38
2023-01-02T02:43:06.222Z,101180.42
2023-01-02T02:46:01.643Z,101169.29
2023-01-02T02:48:50.774Z,101171.33
2023-01-02T02:51:42.748Z,101165.71
2023-01-02T02:54:51.307Z,101158.76
2023-01-02T02:57:21.139Z,101159.75
2023-01-02T02:59:49.323Z,101164.52
2023-01-02T03:02:18.407Z,101165.94
2023-01-02T03:04:51.785Z,101158.73
2023-01-02T03:07:35.810Z,101152.98
2023-01-02T03:10:31.981Z,101152.25
2023-01-02T03:13:06.105Z,101149.24
2023-01-02T03:15:42.552Z,101149.39
2023-01-02T03:18:29.480Z,101140.63
2023-01-02T03:21:10.631Z,101140.86
2023-01-02T03:23:44.940Z,101147.58
2023-01-02T03:26:18.186Z,101140.92
2023-01-02T03:28:51.108Z,101144.34
2023-01-02T03:31:23.177Z,101139.22
2023-01-02T03:33:56.151Z,101138.27
2023-01-02T03:36:29.740Z,101132.75
2023-01-02T03:39:05.113Z,101131.97
2023-01-02T03:41:41.079Z,101127.89
2023-01-02T03:44:11.038Z,101126.60
2023-01-02T03:46:47.668Z,101125.71
2023-01-02T03:49:25.213Z,101124.07
2023-01-02T03:51:54.215Z,101120.72
2023-01-02T03:54:22.612Z,101110.66
2023-01-02T03:57:05.487Z,101108.23
2023-01-02T04:00:02.665Z,101096.27
2023-01-02T04:03:06.417Z,101084.96
2023-01-02T04:05:47.623Z,101084.09
2023-01-02T04:08:29.192Z,101088.41
2023-01-02T04:11:01.230Z,101087.82
2023-01-02T04:13:36.070Z,101088.58
2023-01-02T04:16:07.761Z,101085.88
2023-01-02T04:18:46.371Z,101080.80
2023-01-02T04:21:21.588Z,101086.58
2023-01-02T04:24:02.360Z,101088.23
2023-01-02T04:26:48.049Z,101086.68
2023-01-02T04:29:17.040Z,101096.59
2023-01-02T04:31:53.682Z,101088.79
2023-01-02T04:34:24.511Z,101094.81
2023-01-02T04:36:52.988Z,101095.14
2023-01-02T04:39:23.470Z,101093.04
2023-01-02T04:41:51.580Z,101094.35
2023-01-02T04:44:19.816Z,101081.49
2023-01-02T04:46:48.042Z,101074.37
2023-01-02T04:49:16.585Z,101064.23
2023-01-02T04:51:44.903Z,101050.90
2023-01-02T04:54:13.100Z,101042.55
2023-01-02T04:56:41.231Z,101031.84
2023-01-02T04:59:09.727Z,101029.06
2023-01-02T05:01:39.143Z,101030.67
2023-01-02T05:04:07.660Z,101030.67
2023-01-02T05:06:35.744Z,101027.70
2023-01-02T05:09:03.899Z,101027.88
2023-01-02T05:11:32.155Z,101025.70
2023-01-02T05:14:06.949Z,101026.05
2023-01-02T05:16:35.896Z,101017.59
2023-01-02T05:19:04.083Z,101017.69
2023-01-02T05:21:50.896Z,101026.46
2023-01-02T05:24:18.967Z,101018.63
2023-01-02T05:26:47.091Z,101025.39
2023-01-02T05:29:15.300Z,101035.56
2023-01-02T05:31:43.674Z,101034.13
2023-01-02T05:34:16.076Z,101026.20
2023-01-02T05:36:44.201Z,101025.22
2023-01-02T05:39:14.632Z,101026.34
2023-01-02T05:41:43.777Z,101024.29
2023-01-02T05:44:12.266Z,101024.88
2023-01-02T05:46:40.608Z,101018.08
2023-01-02T05:49:11.219Z,101022.38
2023-01-02T05:51:40.271Z,101022.70
2023-01-02T05:54:09.289Z,101025.83
2023-01-02T05:56:37.844Z,101033.15
2023-01-02T05:59:08.440Z,101023.33
2023-01-02T06:01:36.959Z,101021.46
2023-01-02T06:04:05.566Z,101028.05
2023-01-02T06:06:36.923Z,101029.48
2023-01-02T06:09:06.862Z,101027.60
2023-01-02T06:11:36.458Z,101025.08
2023-01-02T06:14:04.907Z,101027.44
2023-01-02T06:16:34.219Z,101026.52
2023-01-02T06:19:05.111Z,101026.67
2023-01-02T06:21:36.114Z,101029.48
2023-01-02T06:24:04.569Z,101024.84
2023-01-02T06:26:35.477Z,101026.79
2023-01-02T06:29:04.898Z,101024.48
2023-01-02T06:31:33.874Z,101026.02
2023-01-02T06:34:04.147Z,101026.05
2023-01-02T06:36:34.954Z,101027.27
2023-01-02T06:39:03.187Z,101030.02
2023-01-02T06:41:31.849Z,101018.59
2023-01-02T06:44:00.375Z,101013.52
2023-01-02T06:46:28.720Z,101010.51
2023-01-02T06:48:56.851Z,101016.48
2023-01-02T06:51:24.945Z,101014.86
2023-01-02T06:53:53.165Z,101021.02
2023-01-02T06:56:21.708Z,101021.75
2023-01-02T06:58:49.942Z,101015.37
2023-01-02T07:01:22.274Z,101013.77
2023-01-02T07:03:51.447Z,101014.78
2023-01-02T07:06:22.578Z,101014.83
2023-01-02T07:08:52.174Z,101018.59
2023-01-02T07:11:24.543Z,101021.66
2023-01-02T07:13:55.669Z,101024.01
2023-01-02T07:16:25.214Z,101021.03
2023-01-02T07:18:55.005Z,101024.58
2023-01-02T07:21:23.365Z,101021.27
2023-01-02T07:23:51.723Z,101026.32
2023-01-02T07:26:20.269Z,101022.42
2023-01-02T07:28:49.336Z,101022.22
2023-01-02T07:31:19.958Z,101021.87
2023-01-02T07:33:48.972Z,101023.14
2023-01-02T07:36:19.475Z,101025.38
2023-01-02T07:38:57.622Z,101027.23
2023-01-02T07:41:27.040Z,101028.20
2023-01-02T07:43:56.508Z,101028.63
2023-01-02T07:46:25.771Z,101023.89
2023-01-02T07:48:54.403Z,101018.61
2023-01-02T07:51:27.346Z,101019.16
2023-01-02T07:53:57.887Z,101023.16
2023-01-02T07:56:26.901Z,101020.69
2023-01-02T07:58:55.730Z,101025.92
2023-01-02T08:01:24.594Z,101029.41
2023-01-02T08:03:53.371Z,101027.37
2023-01-02T08:06:21.578Z,101029.25
2023-01-02T08:08:50.350Z,101029.91
2023-01-02T08:11:24.881Z,101022.27
2023-01-02T08:13:54.022Z,101020.70
2023-01-02T08:16:22.792Z,101025.66
2023-01-02T08:18:58.499Z,101024.61
2023-01-02T08:21:27.655Z,101025.14
2023-01-02T08:23:56.986Z,101027.00
2023-01-02T08:26:26.040Z,101021.70
2023-01-02T08:28:54.968Z,101024.14
2023-01-02T08:34:28.570Z,101029.77
2023-01-02T08:36:57.380Z,101032.11
2023-01-02T08:39:25.308Z,101030.50
2023-01-02T08:41:53.728Z,101031.14
2023-01-02T08:44:21.747Z,101032.33
2023-01-02T08:46:50.302Z,101029.61
2023-01-02T08:49:18.692Z,101038.63
2023-01-02T08:51:47.477Z,101035.09
2023-01-02T08:54:15.735Z,101039.06
2023-01-02T08:56:43.713Z,101036.83
2023-01-02T08:59:12.654Z,101035.00
2023-01-02T09:01:42.411Z,101029.86
2023-01-02T09:04:12.728Z,101026.08
2023-01-02T09:06:43.067Z,101025.83
2023-01-02T09:09:13.127Z,101025.73
2023-01-02T09:11:52.292Z,101033.55
2023-01-02T09:14:22.097Z,101033.30
2023-01-02T09:16:51.481Z,101036.98
2023-01-02T09:19:19.874Z,101038.77
2023-01-02T09:21:48.399Z,101042.27
2023-01-02T09:24:17.813Z,101036.23
2023-01-02T09:26:46.267Z,101037.50
2023-01-02T09:29:15.514Z,101039.68
2023-01-02T09:31:44.225Z,101045.88
2023-01-02T09:34:13.229Z,101042.00
2023-01-02T09:36:43.546Z,101041.23
2023-01-02T09:39:12.828Z,101037.71
2023-01-02T09:41:52.289Z,101040.08
2023-01-02T09:44:33.381Z,101036.95
2023-01-02T09:47:12.554Z,101036.62
2023-01-02T09:49:48.264Z,101034.98
2023-01-02T09:52:28.218Z,101039.06
2023-01-02T09:54:56.556Z,101037.48
2023-01-02T09:57:34.582Z,101032.36
2023-01-02T10:00:20.568Z,101034.81
2023-01-02T10:02:55.684Z,101037.21
2023-01-02T10:05:43.298Z,101036.81
2023-01-02T10:08:43.223Z,101032.70
2023-01-02T10:11:27.128Z,101032.81
2023-01-02T10:14:20.570Z,101034.04
2023-01-02T10:16:53.025Z,101025.42
2023-01-02T10:19:33.339Z,101018.20
2023-01-02T10:22:03.110Z,101011.98
2023-01-02T10:24:48.883Z,101001.75
2023-01-02T10:27:21.480Z,101016.02
2023-01-02T10:30:07.151Z,101016.48
2023-01-02T10:32:37.591Z,101010.25
2023-01-02T10:35:06.442Z,101003.17
2023-01-02T10:37:35.714Z,101007.85
2023-01-02T10:40:04.744Z,101011.95
2023-01-02T10:42:34.932Z,101007.20
2023-01-02T10:45:03.233Z,100992.54
2023-01-02T10:47:37.822Z,100973.09
2023-01-02T10:50:29.490Z,100976.39
2023-01-02T10:53:35.089Z,100968.67
2023-01-02T10:56:15.999Z,100964.52
2023-01-02T10:58:51.614Z,100967.63
2023-01-02T11:01:22.488Z,100974.73
2023-01-02T11:03:54.647Z,100972.97
2023-01-02T11:06:38.948Z,100970.26
2023-01-02T11:09:29.768Z,100972.21
2023-01-02T11:12:07.426Z,100978.96
2023-01-02T11:14:37.315Z,100973.58
2023-01-02T11:17:24.546Z,100973.69
2023-01-02T11:19:56.604Z,100973.15
2023-01-02T11:22:38.003Z,100965.10
2023-01-02T11:25:28.773Z,100957.43
2023-01-02T11:27:59.930Z,100959.08
2023-01-02T11:30:44.403Z,100961.27
2023-01-02T11:33:24.898Z,100962.62
2023-01-02T11:36:15.486Z,100952.59
2023-01-02T11:38:49.776Z,100951.55
2023-01-02T11:41:47.870Z,100947.52
2023-01-02T11:44:20.684Z,100949.38
2023-01-02T11:46:50.957Z,100946.27
2023-01-02T11:49:26.816Z,100944.17
2023-01-02T11:52:03.273Z,100933.79
2023-01-02T11:54:42.216Z,100936.14
2023-01-02T11:57:24.752Z,100949.71
2023-01-02T11:59:53.918Z,100961.02
2023-01-02T12:02:31.859Z,100960.20
2023-01-02T12:05:00.204Z,100958.83
2023-01-02T12:08:00.291Z,100956.55
2023-01-02T12:10:52.858Z,100954.12
2023-01-02T12:13:36.553Z,100946.96
2023-01-02T12:16:27.980Z,100937.13
2023-01-02T12:19:10.118Z,100931.06
2023-01-02T12:22:03.083Z,100932.55
2023-01-02T12:24:43.371Z,100925.52
2023-01-02T12:27:19.459Z,100921.95
2023-01-02T12:30:03.535Z,100918.39
2023-01-02T12:33:10.529Z,100915.34
2023-01-02T12:35:45.666Z,100918.05
2023-01-02T12:38:37.323Z,100920.62
2023-01-02T12:41:24.025Z,100927.53
2023-01-02T12:44:01.310Z,100925.69
2023-01-02T12:46:43.813Z,100933.25
2023-01-02T12:49:43.196Z,100932.80
2023-01-02T12:52:19.776Z,100924.09
2023-01-02T12:54:56.626Z,100915.56
2023-01-02T12:57:39.321Z,100913.66
2023-01-02T13:00:32.814Z,100911.14
2023-01-02T13:03:31.928Z,100914.92
2023-01-02T13:06:45.322Z,100910.74
2023-01-02T13:09:20.080Z,100906.53
2023-01-02T13:12:00.058Z,100905.98
2023-01-02T13:14:36.465Z,100907.41
2023-01-02T13:17:10.880Z,100913.09
2023-01-02T13:20:20.697Z,100922.77
2023-01-02T13:22:53.455Z,100922.42
2023-01-02T13:25:26.095Z,100916.95
2023-01-02T13:27:58.374Z,100924.98
2023-01-02T13:30:44.321Z,100924.48
2023-01-02T13:33:37.898Z,100918.98
2023-01-02T13:36:17.679Z,100910.67
2023-01-02T13:38:50.383Z,100912.66
2023-01-02T13:41:20.003Z,100917.98
2023-01-02T13:44:01.147Z,100922.17
2023-01-02T13:49:21.335Z,100952.00
2023-01-02T13:52:00.027Z,100942.88
2023-01-02T13:54:37.625Z,100946.96
2023-01-02T13:57:27.114Z,100941.45
2023-01-02T14:00:26.139Z,100931.40
2023-01-02T14:03:33.270Z,100926.41
2023-01-02T14:06:27.275Z,100921.70
2023-01-02T14:09:05.589Z,100919.52
2023-01-02T14:11:55.854Z,100921.10
2023-01-02T14:14:40.367Z,100931.19
2023-01-02T14:17:33.514Z,100937.45
2023-01-02T14:20:17.132Z,100943.38
2023-01-02T14:22:49.428Z,100950.20
2023-01-02T14:25:18.315Z,100948.99
2023-01-02T14:27:55.275Z,100950.85
2023-01-02T14:30:32.097Z,100960.05
2023-01-02T14:33:01.780Z,100954.95
2023-01-02T14:35:48.975Z,100955.46
2023-01-02T14:38:29.970Z,100958.86
2023-01-02T14:41:19.150Z,100962.55
2023-01-02T14:43:48.965Z,100963.14
2023-01-02T14:46:24.227Z,100975.52
2023-01-02T14:49:25.413Z,100980.04
2023-01-02T14:52:08.729Z,100975.71
2023-01-02T14:54:49.355Z,100970.63
2023-01-02T14:57:34.606Z,100967.35
2023-01-02T15:00:11.930Z,100969.27
2023-01-02T15:02:45.451Z,100963.52
2023-01-02T15:05:20.914Z,100960.19
2023-01-02T15:07:54.653Z,100965.13
2023-01-02T15:10:24.375Z,100969.23
2023-01-02T15:13:07.860Z,100974.40
2023-01-02T15:15:46.019Z,100977.70
2023-01-02T15:18:27.520Z,100986.06
2023-01-02T15:21:09.988Z,100990.82
2023-01-02T15:23:43.649Z,100988.95
2023-01-02T15:26:33.204Z,100987.67
2023-01-02T15:29:18.621Z,100993.86
2023-01-02T15:31:58.710Z,100993.31
2023-01-02T15:34:32.812Z,100993.58
2023-01-02T15:37:07.591Z,100995.17
2023-01-02T15:39:40.822Z,100997.01
2023-01-02T15:42:34.099Z,100997.75
2023-01-02T15:45:13.756Z,100987.48
2023-01-02T15:47:49.674Z,100982.30
2023-01-02T15:50:22.312Z,100981.41
2023-01-02T15:52:58.684Z,100976.25
2023-01-02T15:55:36.527Z,100979.31
2023-01-02T15:58:17.218Z,100981.64
2023-01-02T16:00:46.514Z,100979.52
2023-01-02T16:04:03.912Z,100983.09
2023-01-02T16:06:49.692Z,100988.77
2023-01-02T16:09:25.617Z,100989.85
2023-01-02T16:11:58.635Z,100986.68
2023-01-02T16:14:44.481Z,100993.35
2023-01-02T16:17:20.170Z,100996.52
2023-01-02T16:19:59.002Z,100999.55
2023-01-02T16:22:57.647Z,100995.35
2023-01-02T16:25:43.142Z,100996.75
2023-01-02T16:28:34.659Z,100993.25
2023-01-02T16:31:21.302Z,100988.09
2023-01-02T16:33:50.482Z,100983.98
2023-01-02T16:36:24.824Z,100982.98
2023-01-02T16:38:56.481Z,100987.55
2023-01-02T16:41:37.866Z,100994.94
2023-01-02T16:44:12.591Z,100997.00
2023-01-02T16:46:46.135Z,100995.07
2023-01-02T16:49:20.313Z,100999.00
2023-01-02T16:51:51.710Z,100999.27
2023-01-02T16:54:20.756Z,101002.36
2023-01-02T16:56:50.179Z,100995.02
2023-01-02T16:59:18.680Z,100992.71
2023-01-02T17:01:48.012Z,100992.06
2023-01-02T17:04:17.127Z,100988.83
2023-01-02T17:06:45.924Z,100991.64
2023-01-02T17:09:14.541Z,100989.06
2023-01-02T17:12:01.590Z,100994.63
2023-01-02T17:14:32.462Z,100998.51
2023-01-02T17:17:01.095Z,101002.08
2023-01-02T17:19:29.917Z,101012.45
2023-01-02T17:21:58.105Z,101011.13
2023-01-02T17:24:26.897Z,101015.89
2023-01-02T17:26:56.158Z,101017.98
2023-01-02T17:29:29.658Z,101028.95
2023-01-02T17:32:02.449Z,101030.09
2023-01-02T17:34:32.332Z,101021.97
2023-01-02T17:37:01.876Z,101019.77
2023-01-02T17:39:31.233Z,101020.14
2023-01-02T17:42:00.161Z,101026.08
2023-01-02T17:44:29.391Z,101024.83
2023-01-02T17:47:30.876Z,101025.13
2023-01-02T17:49:54.495Z,101024.80
2023-01-02T17:52:23.683Z,101025.34
2023-01-02T17:54:58.727Z,101022.30
2023-01-02T17:57:29.974Z,101020.30
2023-01-02T18:00:19.264Z,101015.25
2023-01-02T18:03:06.602Z,101019.50
2023-01-02T18:05:43.120Z,101020.44
2023-01-02T18:08:20.064Z,101015.91
2023-01-02T18:10:56.755Z,101007.68
2023-01-02T18:13:36.747Z,101016.39
2023-01-02T18:16:27.439Z,101020.55
2023-01-02T18:19:02.217Z,101027.89
2023-01-02T18:21:35.079Z,101038.73
2023-01-02T18:24:18.205Z,101040.65
2023-01-02T18:26:47.847Z,101034.30
2023-01-02T18:29:26.296Z,101044.66
2023-01-02T18:31:57.616Z,101044.33
2023-01-02T18:34:48.102Z,101034.48
2023-01-02T18:37:26.521Z,101026.61
2023-01-02T18:39:58.054Z,101033.03
2023-01-02T18:42:31.551Z,101031.44
2023-01-02T18:45:02.077Z,101029.64
2023-01-02T18:47:38.589Z,101034.73
2023-01-02T18:50:10.012Z,101033.02
2023-01-02T18:52:43.219Z,101031.94
2023-01-02T18:55:17.128Z,101030.11
2023-01-02T18:58:20.132Z,101034.26
2023-01-02T19:00:54.005Z,101046.91
2023-01-02T19:03:27.580Z,101050.30
2023-01-02T19:06:02.270Z,101052.42
2023-01-02T19:08:39.290Z,101047.14
2023-01-02T19:11:39.223Z,101047.05
2023-01-02T19:14:24.198Z,101056.33
2023-01-02T19:17:07.606Z,101059.05
2023-01-02T19:19:45.817Z,101069.77
2023-01-02T19:22:24.605Z,101075.27
2023-01-02T19:25:23.029Z,101073.36
2023-01-02T19:27:59.378Z,101081.40
2023-01-02T19:30:35.110Z,101078.56
2023-01-02T19:33:38.233Z,101075.27
2023-01-02T19:36:23.757Z,101080.48
2023-01-02T19:39:23.485Z,101078.27
2023-01-02T19:42:12.064Z,101077.34
2023-01-02T19:44:43.069Z,101085.64
2023-01-02T19:47:14.378Z,101085.23
2023-01-02T19:49:51.339Z,101087.09
2023-01-02T19:52:23.684Z,101087.44
2023-01-02T19:54:57.571Z,101090.14
2023-01-02T19:57:32.755Z,101097.26
2023-01-02T20:00:14.884Z,101097.48
2023-01-02T20:02:50.081Z,101098.70
2023-01-02T20:05:30.882Z,101101.52
2023-01-02T20:08:03.993Z,101103.79
2023-01-02T20:10:44.296Z,101105.31
2023-01-02T20:13:18.873Z,101108.92
2023-01-02T20:16:00.752Z,101109.52
2023-01-02T20:18:35.626Z,101107.92
2023-01-02T20:21:09.499Z,101112.73
2023-01-02T20:23:43.361Z,101118.78
2023-01-02T20:26:18.756Z,101120.20
2023-01-02T20:28:57.017Z,101121.67
2023-01-02T20:31:29.061Z,101128.42
2023-01-02T20:34:02.893Z,101126.23
2023-01-02T20:36:35.361Z,101134.56
2023-01-02T20:39:13.427Z,101129.09
2023-01-02T20:41:44.762Z,101122.94
2023-01-02T20:44:15.769Z,101132.86
2023-01-02T20:46:46.038Z,101134.92
2023-01-02T20:49:21.908Z,101140.70
2023-01-02T20:52:02.383Z,101138.52
2023-01-02T20:54:33.381Z,101138.24
2023-01-02T20:57:05.002Z,101139.79
2023-01-02T20:59:41.395Z,101138.35
2023-01-02T21:02:12.345Z,101140.34
2023-01-02T21:04:44.784Z,101139.79
2023-01-02T21:07:15.629Z,101147.23
2023-01-02T21:09:45.666Z,101145.67
2023-01-02T21:12:34.415Z,101152.87
2023-01-02T21:15:04.711Z,101156.09
2023-01-02T21:17:34.976Z,101161.80
2023-01-02T21:20:04.349Z,101164.79
2023-01-02T21:22:33.366Z,101165.92
2023-01-02T21:25:03.996Z,101173.33
2023-01-02T21:27:34.709Z,101177.86
2023-01-02T21:30:08.548Z,101181.18
2023-01-02T21:32:39.997Z,101190.42
2023-01-02T21:35:11.528Z,101195.65
2023-01-02T21:37:41.629Z,101192.12
2023-01-02T21:40:10.696Z,101190.36
2023-01-02T21:42:44.869Z,101189.67
2023-01-02T21:45:16.524Z,101186.60
2023-01-02T21:47:47.184Z,101193.42
2023-01-02T21:50:20.184Z,101197.66
2023-01-02T21:52:54.429Z,101199.23
2023-01-02T21:55:25.324Z,101205.98
2023-01-02T21:58:13.017Z,101213.80
2023-01-02T22:00:43.621Z,101225.36
2023-01-02T22:03:13.000Z,101237.41
2023-01-02T22:05:43.112Z,101244.48
2023-01-02T22:08:12.354Z,101252.64
2023-01-02T22:10:41.061Z,101256.66
2023-01-02T22:13:10.990Z,101266.02
2023-01-02T22:15:40.864Z,101280.19
2023-01-02T22:18:11.093Z,101290.45
2023-01-02T22:20:39.970Z,101287.06
2023-01-02T22:23:09.261Z,101278.73
2023-01-02T22:25:38.735Z,101284.31
2023-01-02T22:28:08.411Z,101283.06
2023-01-02T22:30:38.018Z,101276.89
2023-01-02T22:33:07.359Z,101276.95
2023-01-02T22:35:35.910Z,101275.36
2023-01-02T22:38:04.778Z,101278.55
2023-01-02T22:40:34.265Z,101283.29
2023-01-02T22:43:05.339Z,101286.88
2023-01-02T22:45:47.747Z,101297.65
2023-01-02T22:48:20.905Z,101295.55
2023-01-02T22:50:55.131Z,101288.16
2023-01-02T22:53:30.085Z,101291.39
2023-01-02T22:56:01.327Z,101295.46
2023-01-02T22:58:30.322Z,101300.71
2023-01-02T23:01:04.531Z,101316.46
2023-01-02T23:03:39.349Z,101331.20
2023-01-02T23:06:07.762Z,101336.20
2023-01-02T23:08:37.299Z,101342.11
2023-01-02T23:11:07.960Z,101348.69
2023-01-02T23:13:38.145Z,101353.18
2023-01-02T23:16:26.244Z,101355.73
2023-01-02T23:19:13.903Z,101361.80
2023-01-02T23:21:45.499Z,101369.30
2023-01-02T23:24:15.214Z,101370.96
2023-01-02T23:26:46.659Z,101365.91
2023-01-02T23:29:15.914Z,101375.39
2023-01-02T23:31:48.712Z,101377.59
2023-01-02T23:34:19.642Z,101375.66
2023-01-02T23:36:47.749Z,101380.55
2023-01-02T23:39:19.539Z,101378.96
2023-01-02T23:41:49.881Z,101383.23
2023-01-02T23:44:18.747Z,101386.51
2023-01-02T23:46:47.379Z,101392.90
2023-01-02T23:49:16.635Z,101398.09
2023-01-02T23:51:44.897Z,101397.52
2023-01-02T23:54:16.008Z,101399.73
2023-01-02T23:56:46.974Z,101397.21
2023-01-02T23:59:18.519Z,101399.20
